createdAt,value
2023-04-24T00:01:04.891Z,6.00
2023-04-24T00:03:31.701Z,4.87
2023-04-24T00:06:00.146Z,4.40
2023-04-24T00:08:26.929Z,5.40
2023-04-24T00:10:53.926Z,5.40
2023-04-24T00:13:20.736Z,4.57
2023-04-24T00:15:47.367Z,4.80
2023-04-24T00:18:14.260Z,4.33
2023-04-24T00:20:40.934Z,5.90
2023-04-24T00:23:07.773Z,6.30
2023-04-24T00:25:34.524Z,5.67
2023-04-24T00:28:01.936Z,5.10
2023-04-24T00:30:28.733Z,5.37
2023-04-24T00:32:55.522Z,5.27
2023-04-24T00:35:22.241Z,5.37
2023-04-24T00:37:49.036Z,4.63
2023-04-24T00:40:15.816Z,5.27
2023-04-24T00:42:42.901Z,5.30
2023-04-24T00:45:10.096Z,5.43
2023-04-24T00:47:37.371Z,5.23
2023-04-24T00:50:07.972Z,4.77
2023-04-24T00:52:34.729Z,4.70
2023-04-24T00:55:02.042Z,5.90
2023-04-24T00:57:28.951Z,4.90
2023-04-24T00:59:55.799Z,4.70
2023-04-24T01:02:24.276Z,5.47
2023-04-24T01:04:52.146Z,5.30
2023-04-24T01:07:22.426Z,5.00
2023-04-24T01:09:52.295Z,5.53
2023-04-24T01:12:19.970Z,5.30
2023-04-24T01:14:46.950Z,5.97
2023-04-24T01:17:13.673Z,5.77
2023-04-24T01:19:41.545Z,5.67
2023-04-24T01:22:12.874Z,6.17
2023-04-24T01:24:39.989Z,6.33
2023-04-24T01:27:07.241Z,6.23
2023-04-24T01:29:34.928Z,6.10
2023-04-24T01:32:03.440Z,6.67
2023-04-24T01:34:30.663Z,6.73
2023-04-24T01:36:57.684Z,5.57
2023-04-24T01:39:26.499Z,5.67
2023-04-24T01:41:56.992Z,5.77
2023-04-24T01:44:24.249Z,5.93
2023-04-24T01:46:51.636Z,6.47
2023-04-24T01:49:18.682Z,5.97
2023-04-24T01:51:45.785Z,5.17
2023-04-24T01:54:12.580Z,5.67
2023-04-24T01:56:43.472Z,6.07
2023-04-24T01:59:13.714Z,5.40
2023-04-24T02:01:40.743Z,6.03
2023-04-24T02:04:08.730Z,6.00
2023-04-24T02:06:36.350Z,6.57
2023-04-24T02:09:04.421Z,8.83
2023-04-24T02:11:31.498Z,7.43
2023-04-24T02:13:58.324Z,7.47
2023-04-24T02:16:25.027Z,6.27
2023-04-24T02:18:51.826Z,6.17
2023-04-24T02:21:18.491Z,5.40
2023-04-24T02:23:45.100Z,5.53
2023-04-24T02:26:12.110Z,5.77
2023-04-24T02:28:38.824Z,5.50
2023-04-24T02:31:06.321Z,5.03
2023-04-24T02:33:33.098Z,5.97
2023-04-24T02:36:00.567Z,6.43
2023-04-24T02:38:27.217Z,6.00
2023-04-24T02:40:53.857Z,5.70
2023-04-24T02:43:20.547Z,5.30
2023-04-24T02:45:47.520Z,5.50
2023-04-24T02:48:14.137Z,6.60
2023-04-24T02:50:40.833Z,5.90
2023-04-24T02:53:07.546Z,6.33
2023-04-24T02:55:34.166Z,7.17
2023-04-24T02:58:01.053Z,5.60
2023-04-24T03:00:27.634Z,5.83
2023-04-24T03:02:54.465Z,5.70
2023-04-24T03:05:21.217Z,5.67
2023-04-24T03:07:47.968Z,6.20
2023-04-24T03:10:14.645Z,5.77
2023-04-24T03:12:41.254Z,5.07
2023-04-24T03:15:08.584Z,5.10
2023-04-24T03:17:36.399Z,5.07
2023-04-24T03:20:03.065Z,4.70
2023-04-24T03:22:29.706Z,5.13
2023-04-24T03:24:57.753Z,4.77
2023-04-24T03:27:24.678Z,5.33
2023-04-24T03:29:56.317Z,5.03
2023-04-24T03:32:23.734Z,5.37
2023-04-24T03:34:51.340Z,4.70
2023-04-24T03:37:18.351Z,4.87
2023-04-24T03:39:45.329Z,4.77
2023-04-24T03:42:12.186Z,3.97
2023-04-24T03:44:38.774Z,4.87
2023-04-24T03:47:05.629Z,5.17
2023-04-24T03:49:32.198Z,4.27
2023-04-24T03:51:58.852Z,4.50
2023-04-24T03:54:25.588Z,5.33
2023-04-24T03:56:52.223Z,4.60
2023-04-24T03:59:18.814Z,4.80
2023-04-24T04:01:46.594Z,4.40
2023-04-24T04:04:13.423Z,5.27
2023-04-24T04:06:40.241Z,5.00
2023-04-24T04:09:08.111Z,5.60
2023-04-24T04:11:34.722Z,5.13
2023-04-24T04:14:01.346Z,5.53
2023-04-24T04:16:28.148Z,4.80
2023-04-24T04:18:54.837Z,4.83
2023-04-24T04:21:21.624Z,4.93
2023-04-24T04:23:49.166Z,5.83
2023-04-24T04:26:15.837Z,4.67
2023-04-24T04:28:42.656Z,6.10
2023-04-24T04:31:09.300Z,5.07
2023-04-24T04:33:37.123Z,5.60
2023-04-24T04:36:04.855Z,5.53
2023-04-24T04:38:32.834Z,5.67
2023-04-24T04:40:59.812Z,5.80
2023-04-24T04:43:26.473Z,5.80
2023-04-24T04:45:53.594Z,5.13
2023-04-24T04:48:20.232Z,5.70
2023-04-24T04:50:46.903Z,6.47
2023-04-24T04:53:13.516Z,5.00
2023-04-24T04:55:40.275Z,5.57
2023-04-24T04:58:06.992Z,6.13
2023-04-24T05:00:36.859Z,6.70
2023-04-24T05:03:19.217Z,5.40
2023-04-24T05:05:47.617Z,6.03
2023-04-24T05:08:25.930Z,5.03
2023-04-24T05:10:53.629Z,5.20
2023-04-24T05:13:28.368Z,5.97
2023-04-24T05:15:59.137Z,6.07
2023-04-24T05:18:25.884Z,5.43
2023-04-24T05:20:52.538Z,5.83
2023-04-24T05:23:19.181Z,6.10
2023-04-24T05:25:47.251Z,6.53
2023-04-24T05:28:14.005Z,5.83
2023-04-24T05:30:40.742Z,5.97
2023-04-24T05:33:07.570Z,6.00
2023-04-24T05:35:34.291Z,5.97
2023-04-24T05:38:01.028Z,5.63
2023-04-24T05:40:27.637Z,6.27
2023-04-24T05:42:54.292Z,5.97
2023-04-24T05:45:20.955Z,5.70
2023-04-24T05:47:47.978Z,5.50
2023-04-24T05:50:14.956Z,5.83
2023-04-24T05:52:41.706Z,5.77
2023-04-24T05:55:08.880Z,3.97
2023-04-24T05:57:35.762Z,4.73
2023-04-24T06:00:02.476Z,4.50
2023-04-24T06:02:33.393Z,4.20
2023-04-24T06:05:00.880Z,4.40
2023-04-24T06:07:27.704Z,6.67
2023-04-24T06:09:54.401Z,5.10
2023-04-24T06:12:21.183Z,4.70
2023-04-24T06:14:47.854Z,5.00
2023-04-24T06:17:14.647Z,5.07
2023-04-24T06:19:42.183Z,4.10
2023-04-24T06:22:10.876Z,4.40
2023-04-24T06:24:38.012Z,4.90
2023-04-24T06:27:04.738Z,5.13
2023-04-24T06:29:31.390Z,5.27
2023-04-24T06:31:58.294Z,5.00
2023-04-24T06:34:25.063Z,4.77
2023-04-24T06:36:51.982Z,5.07
2023-04-24T06:39:18.674Z,5.30
2023-04-24T06:41:45.279Z,6.00
2023-04-24T06:44:11.919Z,5.40
2023-04-24T06:46:41.769Z,5.37
2023-04-24T06:49:08.642Z,5.23
2023-04-24T06:51:35.317Z,4.70
2023-04-24T06:54:02.912Z,5.30
2023-04-24T06:56:30.472Z,6.33
2023-04-24T06:58:57.288Z,4.93
2023-04-24T07:01:24.079Z,5.37
2023-04-24T07:03:51.106Z,5.63
2023-04-24T07:06:19.762Z,5.83
2023-04-24T07:08:47.603Z,5.13
2023-04-24T07:11:14.352Z,5.07
2023-04-24T07:13:42.990Z,5.03
2023-04-24T07:16:10.322Z,4.93
2023-04-24T07:18:37.652Z,4.50
2023-04-24T07:21:04.341Z,5.40
2023-04-24T07:23:31.815Z,5.53
2023-04-24T07:25:58.752Z,5.13
2023-04-24T07:28:25.806Z,4.87
2023-04-24T07:30:54.987Z,5.57
2023-04-24T07:33:22.107Z,4.80
2023-04-24T07:35:49.202Z,4.77
2023-04-24T07:38:16.067Z,4.57
2023-04-24T07:40:43.127Z,4.30
2023-04-24T07:43:09.718Z,4.27
2023-04-24T07:45:38.657Z,4.40
2023-04-24T07:48:05.535Z,4.80
2023-04-24T07:50:33.067Z,4.80
2023-04-24T07:52:59.740Z,4.93
2023-04-24T07:55:28.155Z,4.43
2023-04-24T07:57:55.353Z,4.67
2023-04-24T08:00:22.275Z,4.40
2023-04-24T08:02:49.055Z,4.90
2023-04-24T08:05:16.131Z,3.50
2023-04-24T08:07:47.151Z,4.27
2023-04-24T08:10:14.483Z,4.60
2023-04-24T08:12:41.365Z,4.57
2023-04-24T08:15:08.501Z,4.90
2023-04-24T08:17:36.684Z,4.73
2023-04-24T08:20:06.371Z,4.43
2023-04-24T08:22:33.195Z,4.97
2023-04-24T08:25:01.209Z,4.63
2023-04-24T08:27:28.196Z,4.63
2023-04-24T08:29:55.422Z,5.07
2023-04-24T08:32:22.115Z,5.27
2023-04-24T08:34:49.832Z,4.60
2023-04-24T08:37:17.812Z,4.47
2023-04-24T08:39:44.621Z,4.77
2023-04-24T08:42:13.981Z,5.03
2023-04-24T08:44:41.053Z,4.77
2023-04-24T08:47:09.131Z,4.70
2023-04-24T08:49:37.789Z,4.50
2023-04-24T08:52:06.323Z,4.90
2023-04-24T08:54:35.618Z,5.57
2023-04-24T08:57:04.641Z,4.60
2023-04-24T08:59:32.532Z,5.20
2023-04-24T09:01:59.375Z,5.10
2023-04-24T09:04:26.729Z,5.40
2023-04-24T09:06:57.858Z,5.17
2023-04-24T09:09:25.970Z,5.40
2023-04-24T09:11:55.536Z,5.27
2023-04-24T09:14:24.205Z,5.10
2023-04-24T09:16:51.652Z,4.93
2023-04-24T09:19:18.539Z,5.07
2023-04-24T09:21:47.627Z,4.87
2023-04-24T09:24:19.312Z,4.90
2023-04-24T09:26:46.253Z,4.97
2023-04-24T09:29:19.744Z,4.10
2023-04-24T09:31:47.130Z,4.37
2023-04-24T09:34:14.722Z,5.10
2023-04-24T09:36:43.699Z,4.37
2023-04-24T09:39:18.780Z,4.20
2023-04-24T09:41:52.214Z,4.10
2023-04-24T09:44:23.992Z,4.97
2023-04-24T09:46:56.001Z,4.33
2023-04-24T09:49:30.128Z,4.73
2023-04-24T09:52:08.360Z,5.13
2023-04-24T09:54:35.166Z,4.23
2023-04-24T09:57:03.837Z,4.57
2023-04-24T09:59:30.994Z,4.40
2023-04-24T10:01:59.838Z,4.03
2023-04-24T10:04:28.999Z,4.10
2023-04-24T10:06:57.428Z,3.93
2023-04-24T10:09:26.259Z,4.40
2023-04-24T10:11:55.836Z,3.53
2023-04-24T10:14:25.920Z,4.57
2023-04-24T10:16:55.220Z,3.60
2023-04-24T10:19:21.902Z,4.20
2023-04-24T10:21:48.974Z,3.50
2023-04-24T10:24:17.551Z,3.37
2023-04-24T10:26:46.264Z,3.10
2023-04-24T10:29:14.527Z,2.63
2023-04-24T10:31:41.612Z,3.00
2023-04-24T10:34:10.124Z,3.00
2023-04-24T10:36:41.427Z,3.20
2023-04-24T10:39:12.547Z,3.23
2023-04-24T10:41:39.496Z,2.97
2023-04-24T10:44:13.596Z,2.50
2023-04-24T10:46:44.084Z,3.23
2023-04-24T10:49:11.098Z,2.67
2023-04-24T10:51:50.589Z,2.67
2023-04-24T10:54:37.817Z,2.60
2023-04-24T10:57:19.628Z,2.70
2023-04-24T10:59:47.304Z,2.63
2023-04-24T11:02:18.547Z,3.20
2023-04-24T11:04:46.447Z,2.63
2023-04-24T11:07:13.944Z,2.70
2023-04-24T11:09:44.267Z,2.80
2023-04-24T11:12:12.629Z,3.30
2023-04-24T11:15:18.226Z,3.00
2023-04-24T11:17:45.069Z,2.30
2023-04-24T11:20:26.939Z,3.07
2023-04-24T11:22:56.553Z,2.70
2023-04-24T11:25:23.790Z,2.63
2023-04-24T11:27:51.385Z,2.73
2023-04-24T11:30:21.710Z,2.27
2023-04-24T11:32:51.367Z,2.50
2023-04-24T11:35:20.480Z,3.20
2023-04-24T11:38:07.879Z,2.80
2023-04-24T11:40:39.070Z,3.30
2023-04-24T11:43:08.267Z,3.53
2023-04-24T11:45:35.375Z,3.67
2023-04-24T11:48:04.020Z,4.33
2023-04-24T11:50:31.487Z,3.83
2023-04-24T11:52:58.472Z,4.37
2023-04-24T11:55:28.088Z,4.10
2023-04-24T11:58:00.226Z,3.73
2023-04-24T12:00:29.723Z,3.07
2023-04-24T12:03:08.379Z,3.00
2023-04-24T12:05:36.331Z,3.03
2023-04-24T12:08:03.232Z,3.40
2023-04-24T12:10:31.595Z,3.03
2023-04-24T12:12:59.377Z,3.33
2023-04-24T12:15:26.493Z,3.20
2023-04-24T12:17:54.990Z,3.83
2023-04-24T12:20:30.139Z,3.40
2023-04-24T12:22:58.915Z,2.97
2023-04-24T12:25:28.012Z,3.67
2023-04-24T12:28:15.142Z,3.40
2023-04-24T12:30:49.520Z,3.47
2023-04-24T12:33:21.041Z,3.00
2023-04-24T12:35:49.799Z,3.50
2023-04-24T12:38:17.196Z,4.10
2023-04-24T12:40:44.640Z,3.37
2023-04-24T12:43:29.262Z,3.70
2023-04-24T12:45:56.117Z,3.27
2023-04-24T12:48:23.463Z,3.30
2023-04-24T12:50:50.208Z,3.40
2023-04-24T12:53:17.132Z,3.40
2023-04-24T12:55:45.633Z,3.10
2023-04-24T12:58:12.465Z,3.20
2023-04-24T13:00:39.902Z,2.87
2023-04-24T13:03:06.907Z,2.97
2023-04-24T13:05:33.763Z,2.80
2023-04-24T13:08:00.383Z,3.00
2023-04-24T13:10:27.135Z,3.10
2023-04-24T13:12:53.842Z,3.70
2023-04-24T13:15:21.194Z,2.63
2023-04-24T13:17:47.949Z,2.87
2023-04-24T13:20:14.685Z,3.20
2023-04-24T13:22:41.436Z,3.10
2023-04-24T13:25:08.612Z,2.63
2023-04-24T13:27:35.379Z,3.50
2023-04-24T13:30:02.160Z,2.97
2023-04-24T13:32:29.934Z,3.53
2023-04-24T13:34:57.708Z,3.13
2023-04-24T13:37:24.318Z,3.10
2023-04-24T13:39:51.720Z,3.30
2023-04-24T13:42:19.947Z,2.90
2023-04-24T13:44:46.620Z,2.67
2023-04-24T13:47:13.315Z,3.20
2023-04-24T13:49:39.890Z,2.73
2023-04-24T13:52:06.663Z,3.30
2023-04-24T13:54:33.834Z,2.70
2023-04-24T13:57:01.524Z,2.80
2023-04-24T13:59:28.263Z,2.97
2023-04-24T14:01:55.002Z,2.90
2023-04-24T14:04:21.890Z,3.03
2023-04-24T14:06:48.584Z,2.70
2023-04-24T14:09:15.762Z,2.90
2023-04-24T14:11:42.465Z,2.57
2023-04-24T14:14:09.426Z,3.20
2023-04-24T14:16:36.400Z,3.20
2023-04-24T14:19:03.061Z,2.73
2023-04-24T14:21:29.746Z,2.53
2023-04-24T14:23:56.437Z,2.53
2023-04-24T14:26:23.208Z,2.70
2023-04-24T14:28:51.138Z,2.50
2023-04-24T14:31:17.962Z,2.70
2023-04-24T14:33:45.154Z,2.57
2023-04-24T14:36:12.010Z,2.43
2023-04-24T14:38:38.708Z,2.87
2023-04-24T14:41:13.821Z,2.77
2023-04-24T14:43:41.430Z,2.50
2023-04-24T14:46:08.223Z,2.90
2023-04-24T14:48:34.910Z,3.00
2023-04-24T14:51:01.730Z,2.60
2023-04-24T14:53:28.440Z,3.10
2023-04-24T14:55:55.196Z,3.23
2023-04-24T14:58:22.199Z,3.17
2023-04-24T15:00:52.820Z,2.97
2023-04-24T15:03:22.505Z,3.37
2023-04-24T15:05:49.443Z,3.40
2023-04-24T15:08:16.260Z,3.10
2023-04-24T15:10:43.492Z,2.90
2023-04-24T15:13:10.197Z,3.30
2023-04-24T15:15:37.871Z,2.87
2023-04-24T15:18:06.613Z,3.00
2023-04-24T15:20:33.611Z,2.80
2023-04-24T15:23:01.808Z,3.40
2023-04-24T15:25:28.562Z,3.37
2023-04-24T15:27:55.291Z,3.70
2023-04-24T15:30:21.975Z,3.37
2023-04-24T15:32:48.766Z,3.20
2023-04-24T15:35:15.787Z,3.47
2023-04-24T15:37:43.112Z,4.20
2023-04-24T15:40:12.191Z,3.40
2023-04-24T15:42:38.872Z,3.70
2023-04-24T15:45:05.921Z,3.37
2023-04-24T15:47:33.521Z,3.83
2023-04-24T15:50:00.316Z,3.90
2023-04-24T15:52:27.032Z,3.70
2023-04-24T15:54:53.741Z,4.80
2023-04-24T15:57:21.271Z,3.63
2023-04-24T15:59:48.042Z,3.40
2023-04-24T16:02:21.600Z,3.93
2023-04-24T16:04:49.756Z,4.30
2023-04-24T16:07:20.469Z,4.67
2023-04-24T16:09:47.491Z,4.40
2023-04-24T16:12:14.914Z,4.27
2023-04-24T16:14:42.059Z,4.43
2023-04-24T16:17:08.959Z,4.40
2023-04-24T16:19:35.733Z,4.10
2023-04-24T16:22:03.426Z,4.90
2023-04-24T16:24:30.516Z,5.03
2023-04-24T16:26:57.338Z,5.17
2023-04-24T16:29:24.279Z,6.03
2023-04-24T16:31:51.138Z,4.80
2023-04-24T16:34:17.911Z,5.07
2023-04-24T16:36:44.672Z,6.30
2023-04-24T16:39:12.192Z,5.17
2023-04-24T16:41:39.404Z,5.10
2023-04-24T16:44:06.098Z,5.57
2023-04-24T16:46:33.159Z,5.90
2023-04-24T16:49:00.262Z,5.07
2023-04-24T16:51:27.883Z,4.60
2023-04-24T16:53:54.850Z,5.00
2023-04-24T16:56:21.640Z,5.33
2023-04-24T16:58:48.554Z,10.20
2023-04-24T17:01:15.408Z,6.90
2023-04-24T17:03:42.120Z,5.93
2023-04-24T17:06:08.937Z,5.50
2023-04-24T17:08:35.627Z,5.87
2023-04-24T17:11:02.308Z,5.00
2023-04-24T17:13:28.938Z,5.70
2023-04-24T17:15:55.589Z,4.93
2023-04-24T17:18:22.448Z,5.53
2023-04-24T17:20:51.467Z,5.07
2023-04-24T17:23:18.244Z,5.20
2023-04-24T17:25:44.921Z,4.73
2023-04-24T17:28:30.105Z,5.00
2023-04-24T17:30:58.551Z,4.80
2023-04-24T17:33:29.852Z,5.80
2023-04-24T17:35:58.138Z,5.30
2023-04-24T17:38:25.142Z,5.37
2023-04-24T17:40:54.547Z,5.67
2023-04-24T17:43:21.273Z,6.53
2023-04-24T17:45:49.617Z,5.60
2023-04-24T17:48:16.936Z,5.73
2023-04-24T17:50:44.625Z,5.37
2023-04-24T17:53:11.513Z,6.30
2023-04-24T17:55:39.834Z,5.73
2023-04-24T17:58:06.866Z,5.93
2023-04-24T18:00:34.622Z,3.20
2023-04-24T18:03:02.442Z,3.53
2023-04-24T18:05:33.417Z,3.43
2023-04-24T18:08:01.651Z,3.90
2023-04-24T18:10:29.795Z,2.97
2023-04-24T18:12:56.619Z,2.73
2023-04-24T18:15:23.574Z,3.63
2023-04-24T18:17:50.324Z,3.20
2023-04-24T18:20:19.047Z,2.50
2023-04-24T18:22:46.408Z,8.20
2023-04-24T18:25:14.375Z,7.53
2023-04-24T18:27:42.139Z,3.80
2023-04-24T18:30:14.238Z,2.53
2023-04-24T18:32:41.862Z,2.40
2023-04-24T18:35:08.953Z,2.80
2023-04-24T18:37:35.627Z,2.50
2023-04-24T18:40:02.492Z,2.93
2023-04-24T18:42:29.224Z,2.93
2023-04-24T18:45:02.378Z,2.80
2023-04-24T18:47:29.127Z,2.47
2023-04-24T18:49:55.911Z,2.60
2023-04-24T18:52:23.683Z,2.17
2023-04-24T18:54:50.474Z,1.43
2023-04-24T18:57:17.187Z,1.30
2023-04-24T18:59:43.886Z,1.20
2023-04-24T19:02:10.700Z,0.97
2023-04-24T19:04:37.492Z,1.10
2023-04-24T19:07:04.243Z,1.00
2023-04-24T19:09:30.979Z,0.80
2023-04-24T19:11:57.681Z,0.90
2023-04-24T19:14:24.430Z,0.60
2023-04-24T19:16:51.217Z,0.90
2023-04-24T19:19:18.080Z,1.00
2023-04-24T19:21:45.338Z,0.80
2023-04-24T19:24:12.024Z,0.90
2023-04-24T19:26:38.788Z,1.00
2023-04-24T19:29:05.406Z,0.80
2023-04-24T19:31:32.169Z,1.17
2023-04-24T19:33:58.816Z,1.23
2023-04-24T19:36:25.874Z,1.60
2023-04-24T19:38:52.544Z,1.00
2023-04-24T19:41:19.348Z,1.20
2023-04-24T19:43:47.397Z,0.73
2023-04-24T19:46:14.189Z,1.20
2023-04-24T19:48:40.894Z,1.10
2023-04-24T19:51:07.686Z,1.30
2023-04-24T19:53:34.300Z,0.80
2023-04-24T19:56:03.078Z,1.17
2023-04-24T19:58:32.662Z,0.93
2023-04-24T20:00:59.425Z,1.10
2023-04-24T20:05:58.556Z,1.17
2023-04-24T20:08:25.222Z,0.73
2023-04-24T20:10:52.716Z,0.83
2023-04-24T20:13:19.330Z,0.90
2023-04-24T20:15:45.973Z,0.80
2023-04-24T20:18:12.701Z,1.00
2023-04-24T20:20:41.587Z,0.73
2023-04-24T20:23:20.691Z,0.90
2023-04-24T20:25:47.325Z,1.00
2023-04-24T20:28:14.862Z,0.90
2023-04-24T20:30:41.563Z,1.03
2023-04-24T20:33:08.572Z,0.90
2023-04-24T20:35:35.506Z,0.80
2023-04-24T20:38:03.245Z,1.00
2023-04-24T20:40:31.360Z,1.00
2023-04-24T20:42:58.461Z,1.00
2023-04-24T20:45:25.193Z,0.97
2023-04-24T20:47:52.122Z,1.33
2023-04-24T20:50:19.375Z,1.10
2023-04-24T20:52:46.162Z,1.10
2023-04-24T20:55:13.133Z,1.40
2023-04-24T20:57:39.863Z,1.33
2023-04-24T21:00:08.822Z,1.50
2023-04-24T21:02:35.653Z,1.93
2023-04-24T21:05:02.708Z,1.10
2023-04-24T21:07:29.430Z,1.10
2023-04-24T21:09:56.119Z,1.37
2023-04-24T21:12:22.768Z,1.33
2023-04-24T21:14:51.166Z,1.23
2023-04-24T21:17:18.522Z,1.30
2023-04-24T21:19:45.455Z,1.20
2023-04-24T21:22:12.098Z,1.20
2023-04-24T21:24:38.855Z,1.47
2023-04-24T21:27:05.664Z,1.60
2023-04-24T21:29:33.419Z,1.13
2023-04-24T21:32:00.132Z,1.73
2023-04-24T21:34:26.802Z,1.60
2023-04-24T21:36:53.414Z,1.73
2023-04-24T21:39:20.107Z,1.50
2023-04-24T21:41:47.682Z,1.80
2023-04-24T21:44:14.571Z,2.00
2023-04-24T21:46:42.728Z,1.73
2023-04-24T21:49:09.554Z,1.97
2023-04-24T21:51:36.167Z,3.00
2023-04-24T21:54:02.856Z,2.43
2023-04-24T21:56:29.589Z,2.80
2023-04-24T21:58:56.703Z,2.50
2023-04-24T22:01:23.434Z,2.30
2023-04-24T22:03:50.443Z,3.03
2023-04-24T22:06:17.355Z,2.27
2023-04-24T22:08:47.706Z,2.10
2023-04-24T22:11:25.771Z,2.10
2023-04-24T22:13:53.910Z,2.50
2023-04-24T22:16:22.805Z,2.43
2023-04-24T22:18:49.935Z,2.40
2023-04-24T22:21:16.635Z,2.50
2023-04-24T22:23:43.337Z,2.17
2023-04-24T22:26:09.969Z,3.07
2023-04-24T22:28:36.613Z,2.43
2023-04-24T22:31:03.776Z,2.53
2023-04-24T22:33:30.573Z,2.50
2023-04-24T22:35:57.195Z,2.20
2023-04-24T22:38:23.908Z,3.00
2023-04-24T22:40:50.959Z,2.30
2023-04-24T22:43:17.654Z,3.00
2023-04-24T22:45:44.332Z,2.60
2023-04-24T22:48:10.953Z,2.90
2023-04-24T22:50:37.598Z,2.57
2023-04-24T22:53:04.852Z,2.37
2023-04-24T22:55:31.550Z,2.60
2023-04-24T22:57:58.922Z,2.37
2023-04-24T23:00:25.637Z,3.80
2023-04-24T23:02:53.170Z,4.20
2023-04-24T23:05:22.230Z,4.67
2023-04-24T23:07:48.861Z,4.27
2023-04-24T23:10:15.581Z,4.10
2023-04-24T23:12:42.371Z,3.77
2023-04-24T23:15:11.300Z,3.40
2023-04-24T23:17:38.314Z,2.63
2023-04-24T23:20:05.741Z,2.87
2023-04-24T23:22:32.520Z,2.30
2023-04-24T23:24:59.265Z,2.60
2023-04-24T23:27:25.895Z,2.00
2023-04-24T23:29:52.518Z,1.57
2023-04-24T23:32:19.181Z,1.90
2023-04-24T23:34:45.753Z,1.73
2023-04-24T23:37:12.465Z,1.50
2023-04-24T23:39:39.117Z,1.50
2023-04-24T23:42:07.823Z,1.90
2023-04-24T23:44:35.075Z,1.77
2023-04-24T23:47:03.635Z,1.70
2023-04-24T23:49:30.270Z,2.00
2023-04-24T23:51:57.054Z,2.50
2023-04-24T23:54:23.744Z,2.30
2023-04-24T23:56:50.803Z,2.63
2023-04-24T23:59:20.631Z,2.57
